Aviation Digital Data Service (ADDS)

Output produced by METARs form (0854 UTC 23 July 2019)
found at http://www.aviationweather.gov/metar/data/
 
Forecast for: KONT (ONTARIO , CA, US)
Text: KONT 230520Z 2306/2412 VRB05KT P6SM SCT150
Forecast period: 0600 to 2100 UTC 23 July 2019
Forecast type: FROM: standard forecast or significant change
Winds: variable direction winds at 6 MPH (5 knots; 2.6 m/s)
Visibility: 6 or more miles 10+ km)
Ceiling: at least 12,000 feet AGL
Clouds: scattered clouds at 15000 feet AGL
Weather: no significant weather forecast for this period
Text: FM232100 25011KT P6SM BKN150
Forecast period: 2100 UTC 23 July 2019 to 0500 UTC 24 July 2019
Forecast type: FROM: standard forecast or significant change
Winds: from the WSW (250 degrees) at 13 MPH (11 knots; 5.7 m/s)
Visibility: 6 or more miles 10+ km)
Ceiling: 15000 feet AGL
Clouds: broken clouds at 15000 feet AGL
Weather: no significant weather forecast for this period
Text: FM240500 VRB04KT P6SM SCT150
Forecast period: 0500 to 1200 UTC 24 July 2019
Forecast type: FROM: standard forecast or significant change
Winds: variable direction winds at 5 MPH (4 knots; 2.1 m/s)
Visibility: 6 or more miles 10+ km)
Ceiling: at least 12,000 feet AGL
Clouds: scattered clouds at 15000 feet AGL
Weather: no significant weather forecast for this period